sensor_id;sensor_type;location;lat;lon;timestamp;P1;durP1;ratioP1;P2;durP2;ratioP2
45043;SDS011;30784;48.490;9.688;2022-07-15T00:00:29;5.65;;;2.08;;
45043;SDS011;30784;48.490;9.688;2022-07-15T00:02:56;4.68;;;1.50;;
45043;SDS011;30784;48.490;9.688;2022-07-15T00:05:22;5.55;;;2.05;;
45043;SDS011;30784;48.490;9.688;2022-07-15T00:07:48;5.43;;;1.90;;
45043;SDS011;30784;48.490;9.688;2022-07-15T00:10:14;6.47;;;2.00;;
45043;SDS011;30784;48.490;9.688;2022-07-15T00:12:43;5.93;;;2.00;;
45043;SDS011;30784;48.490;9.688;2022-07-15T00:15:11;5.43;;;1.60;;
45043;SDS011;30784;48.490;9.688;2022-07-15T00:17:36;4.72;;;1.80;;
45043;SDS011;30784;48.490;9.688;2022-07-15T00:20:02;5.80;;;1.80;;
45043;SDS011;30784;48.490;9.688;2022-07-15T00:22:29;5.32;;;1.77;;
45043;SDS011;30784;48.490;9.688;2022-07-15T00:24:55;4.82;;;1.75;;
45043;SDS011;30784;48.490;9.688;2022-07-15T00:27:20;5.18;;;1.60;;
45043;SDS011;30784;48.490;9.688;2022-07-15T00:29:46;6.05;;;1.70;;
45043;SDS011;30784;48.490;9.688;2022-07-15T00:32:11;5.47;;;1.83;;
45043;SDS011;30784;48.490;9.688;2022-07-15T00:34:37;4.57;;;1.77;;
45043;SDS011;30784;48.490;9.688;2022-07-15T00:37:03;5.72;;;1.90;;
45043;SDS011;30784;48.490;9.688;2022-07-15T00:39:29;5.93;;;1.80;;
45043;SDS011;30784;48.490;9.688;2022-07-15T00:41:54;6.30;;;1.52;;
45043;SDS011;30784;48.490;9.688;2022-07-15T00:44:20;5.97;;;1.65;;
45043;SDS011;30784;48.490;9.688;2022-07-15T00:46:46;6.40;;;2.10;;
45043;SDS011;30784;48.490;9.688;2022-07-15T00:49:12;5.88;;;1.73;;
45043;SDS011;30784;48.490;9.688;2022-07-15T00:51:42;5.00;;;1.63;;
45043;SDS011;30784;48.490;9.688;2022-07-15T00:54:10;4.50;;;1.50;;
45043;SDS011;30784;48.490;9.688;2022-07-15T00:56:39;5.45;;;1.60;;
45043;SDS011;30784;48.490;9.688;2022-07-15T00:59:15;5.30;;;1.38;;
45043;SDS011;30784;48.490;9.688;2022-07-15T01:01:41;7.03;;;1.77;;
45043;SDS011;30784;48.490;9.688;2022-07-15T01:04:10;4.57;;;1.63;;
45043;SDS011;30784;48.490;9.688;2022-07-15T01:06:42;5.53;;;1.90;;
45043;SDS011;30784;48.490;9.688;2022-07-15T01:09:08;5.32;;;1.80;;
45043;SDS011;30784;48.490;9.688;2022-07-15T01:11:33;5.13;;;1.80;;
45043;SDS011;30784;48.490;9.688;2022-07-15T01:14:01;8.68;;;2.17;;
45043;SDS011;30784;48.490;9.688;2022-07-15T01:16:27;5.72;;;1.80;;
45043;SDS011;30784;48.490;9.688;2022-07-15T01:18:53;4.85;;;1.77;;
45043;SDS011;30784;48.490;9.688;2022-07-15T01:21:19;5.60;;;1.52;;
45043;SDS011;30784;48.490;9.688;2022-07-15T01:23:45;5.80;;;2.10;;
45043;SDS011;30784;48.490;9.688;2022-07-15T01:26:11;6.53;;;1.65;;
45043;SDS011;30784;48.490;9.688;2022-07-15T01:28:38;5.55;;;1.60;;
45043;SDS011;30784;48.490;9.688;2022-07-15T01:31:04;4.78;;;1.40;;
45043;SDS011;30784;48.490;9.688;2022-07-15T01:33:30;5.60;;;1.65;;
45043;SDS011;30784;48.490;9.688;2022-07-15T01:35:57;4.47;;;1.50;;
45043;SDS011;30784;48.490;9.688;2022-07-15T01:38:24;5.88;;;1.65;;
45043;SDS011;30784;48.490;9.688;2022-07-15T01:40:50;4.40;;;1.48;;
45043;SDS011;30784;48.490;9.688;2022-07-15T01:43:16;5.78;;;1.67;;
45043;SDS011;30784;48.490;9.688;2022-07-15T01:45:42;5.07;;;1.63;;
45043;SDS011;30784;48.490;9.688;2022-07-15T01:48:09;5.80;;;1.77;;
45043;SDS011;30784;48.490;9.688;2022-07-15T01:50:55;5.82;;;1.70;;
45043;SDS011;30784;48.490;9.688;2022-07-15T01:53:22;4.70;;;1.75;;
45043;SDS011;30784;48.490;9.688;2022-07-15T01:55:49;4.97;;;1.38;;
45043;SDS011;30784;48.490;9.688;2022-07-15T01:58:15;4.90;;;1.55;;
45043;SDS011;30784;48.490;9.688;2022-07-15T02:00:40;5.20;;;1.50;;
45043;SDS011;30784;48.490;9.688;2022-07-15T02:03:06;5.05;;;1.35;;
45043;SDS011;30784;48.490;9.688;2022-07-15T02:05:33;4.30;;;1.48;;
45043;SDS011;30784;48.490;9.688;2022-07-15T02:07:59;3.47;;;1.20;;
45043;SDS011;30784;48.490;9.688;2022-07-15T02:10:25;4.70;;;1.58;;
45043;SDS011;30784;48.490;9.688;2022-07-15T02:13:04;4.65;;;1.38;;
45043;SDS011;30784;48.490;9.688;2022-07-15T02:15:30;4.07;;;1.27;;
45043;SDS011;30784;48.490;9.688;2022-07-15T02:17:56;3.80;;;1.05;;
45043;SDS011;30784;48.490;9.688;2022-07-15T02:20:21;7.13;;;1.50;;
45043;SDS011;30784;48.490;9.688;2022-07-15T02:22:47;5.32;;;1.40;;
45043;SDS011;30784;48.490;9.688;2022-07-15T02:25:13;4.50;;;1.30;;
45043;SDS011;30784;48.490;9.688;2022-07-15T02:31:00;4.75;;;1.63;;
45043;SDS011;30784;48.490;9.688;2022-07-15T02:33:26;5.32;;;1.40;;
45043;SDS011;30784;48.490;9.688;2022-07-15T02:35:51;5.53;;;1.35;;
45043;SDS011;30784;48.490;9.688;2022-07-15T02:38:17;4.38;;;1.20;;
45043;SDS011;30784;48.490;9.688;2022-07-15T02:40:44;5.53;;;1.45;;
45043;SDS011;30784;48.490;9.688;2022-07-15T02:43:11;3.50;;;1.10;;
45043;SDS011;30784;48.490;9.688;2022-07-15T02:45:37;4.82;;;1.30;;
45043;SDS011;30784;48.490;9.688;2022-07-15T02:48:04;3.75;;;1.20;;
45043;SDS011;30784;48.490;9.688;2022-07-15T02:50:30;5.18;;;1.15;;
45043;SDS011;30784;48.490;9.688;2022-07-15T02:52:56;4.03;;;1.30;;
45043;SDS011;30784;48.490;9.688;2022-07-15T02:55:21;4.72;;;1.40;;
45043;SDS011;30784;48.490;9.688;2022-07-15T02:57:47;5.22;;;1.50;;
45043;SDS011;30784;48.490;9.688;2022-07-15T03:00:14;4.60;;;1.30;;
45043;SDS011;30784;48.490;9.688;2022-07-15T03:02:45;5.57;;;1.27;;
45043;SDS011;30784;48.490;9.688;2022-07-15T03:05:11;4.68;;;1.23;;
45043;SDS011;30784;48.490;9.688;2022-07-15T03:07:38;4.38;;;1.13;;
45043;SDS011;30784;48.490;9.688;2022-07-15T03:10:05;4.18;;;1.08;;
45043;SDS011;30784;48.490;9.688;2022-07-15T03:12:31;4.10;;;1.10;;
45043;SDS011;30784;48.490;9.688;2022-07-15T03:14:58;3.97;;;1.15;;
45043;SDS011;30784;48.490;9.688;2022-07-15T03:17:26;4.22;;;1.15;;
45043;SDS011;30784;48.490;9.688;2022-07-15T03:19:52;4.45;;;1.27;;
45043;SDS011;30784;48.490;9.688;2022-07-15T03:22:20;6.65;;;1.30;;
45043;SDS011;30784;48.490;9.688;2022-07-15T03:24:49;4.35;;;1.27;;
45043;SDS011;30784;48.490;9.688;2022-07-15T03:27:16;5.60;;;1.60;;
45043;SDS011;30784;48.490;9.688;2022-07-15T03:29:42;5.28;;;1.30;;
45043;SDS011;30784;48.490;9.688;2022-07-15T03:32:08;4.70;;;1.30;;
45043;SDS011;30784;48.490;9.688;2022-07-15T03:34:35;4.40;;;1.10;;
45043;SDS011;30784;48.490;9.688;2022-07-15T03:37:01;4.95;;;1.20;;
45043;SDS011;30784;48.490;9.688;2022-07-15T03:39:27;4.70;;;1.42;;
45043;SDS011;30784;48.490;9.688;2022-07-15T03:41:52;5.22;;;1.30;;
45043;SDS011;30784;48.490;9.688;2022-07-15T03:44:18;5.18;;;1.50;;
45043;SDS011;30784;48.490;9.688;2022-07-15T03:46:44;4.72;;;1.33;;
45043;SDS011;30784;48.490;9.688;2022-07-15T03:49:13;4.55;;;1.30;;
45043;SDS011;30784;48.490;9.688;2022-07-15T03:51:39;5.78;;;1.35;;
45043;SDS011;30784;48.490;9.688;2022-07-15T03:54:05;4.63;;;1.38;;
45043;SDS011;30784;48.490;9.688;2022-07-15T03:56:32;5.15;;;1.10;;
45043;SDS011;30784;48.490;9.688;2022-07-15T03:58:58;4.13;;;1.30;;
45043;SDS011;30784;48.490;9.688;2022-07-15T04:01:24;4.45;;;1.27;;
45043;SDS011;30784;48.490;9.688;2022-07-15T04:03:50;4.57;;;1.20;;
45043;SDS011;30784;48.490;9.688;2022-07-15T04:06:17;4.28;;;1.20;;
45043;SDS011;30784;48.490;9.688;2022-07-15T04:08:43;4.45;;;1.15;;
45043;SDS011;30784;48.490;9.688;2022-07-15T04:11:10;4.15;;;1.20;;
45043;SDS011;30784;48.490;9.688;2022-07-15T04:13:36;4.20;;;1.20;;
45043;SDS011;30784;48.490;9.688;2022-07-15T04:16:03;7.13;;;1.48;;
45043;SDS011;30784;48.490;9.688;2022-07-15T04:18:30;4.60;;;1.30;;
45043;SDS011;30784;48.490;9.688;2022-07-15T04:20:55;5.05;;;1.40;;
45043;SDS011;30784;48.490;9.688;2022-07-15T04:23:21;5.20;;;1.40;;
45043;SDS011;30784;48.490;9.688;2022-07-15T04:25:48;4.32;;;1.10;;
45043;SDS011;30784;48.490;9.688;2022-07-15T04:28:17;4.75;;;1.25;;
45043;SDS011;30784;48.490;9.688;2022-07-15T04:30:43;4.43;;;1.30;;
45043;SDS011;30784;48.490;9.688;2022-07-15T04:33:08;3.97;;;1.20;;
45043;SDS011;30784;48.490;9.688;2022-07-15T04:35:34;3.65;;;0.95;;
45043;SDS011;30784;48.490;9.688;2022-07-15T04:38:00;6.28;;;1.38;;
45043;SDS011;30784;48.490;9.688;2022-07-15T04:40:25;4.55;;;1.20;;
45043;SDS011;30784;48.490;9.688;2022-07-15T04:42:51;4.82;;;1.17;;
45043;SDS011;30784;48.490;9.688;2022-07-15T04:45:18;3.75;;;1.25;;
45043;SDS011;30784;48.490;9.688;2022-07-15T04:47:44;3.47;;;0.95;;
45043;SDS011;30784;48.490;9.688;2022-07-15T04:50:09;4.35;;;1.10;;
45043;SDS011;30784;48.490;9.688;2022-07-15T04:52:53;3.78;;;1.15;;
45043;SDS011;30784;48.490;9.688;2022-07-15T04:55:19;5.45;;;1.38;;
45043;SDS011;30784;48.490;9.688;2022-07-15T04:57:45;5.90;;;1.40;;
45043;SDS011;30784;48.490;9.688;2022-07-15T05:00:10;4.65;;;1.20;;
45043;SDS011;30784;48.490;9.688;2022-07-15T05:02:36;5.47;;;1.08;;
45043;SDS011;30784;48.490;9.688;2022-07-15T05:05:02;5.43;;;1.17;;
45043;SDS011;30784;48.490;9.688;2022-07-15T05:07:28;4.35;;;1.00;;
45043;SDS011;30784;48.490;9.688;2022-07-15T05:09:54;5.40;;;1.10;;
45043;SDS011;30784;48.490;9.688;2022-07-15T05:12:19;3.75;;;1.00;;
45043;SDS011;30784;48.490;9.688;2022-07-15T05:14:45;4.40;;;1.20;;
45043;SDS011;30784;48.490;9.688;2022-07-15T05:20:32;4.70;;;1.38;;
45043;SDS011;30784;48.490;9.688;2022-07-15T05:22:58;3.85;;;1.17;;
45043;SDS011;30784;48.490;9.688;2022-07-15T05:25:25;5.85;;;1.20;;
45043;SDS011;30784;48.490;9.688;2022-07-15T05:27:51;7.10;;;1.20;;
45043;SDS011;30784;48.490;9.688;2022-07-15T05:30:16;3.38;;;1.00;;
45043;SDS011;30784;48.490;9.688;2022-07-15T05:32:42;7.88;;;1.20;;
45043;SDS011;30784;48.490;9.688;2022-07-15T05:35:08;3.72;;;1.10;;
45043;SDS011;30784;48.490;9.688;2022-07-15T05:37:38;4.72;;;0.95;;
45043;SDS011;30784;48.490;9.688;2022-07-15T05:40:07;4.05;;;1.00;;
45043;SDS011;30784;48.490;9.688;2022-07-15T05:42:34;5.22;;;1.15;;
45043;SDS011;30784;48.490;9.688;2022-07-15T05:45:00;4.43;;;1.10;;
45043;SDS011;30784;48.490;9.688;2022-07-15T05:50:48;3.13;;;0.80;;
45043;SDS011;30784;48.490;9.688;2022-07-15T05:53:14;5.80;;;1.10;;
45043;SDS011;30784;48.490;9.688;2022-07-15T05:55:40;3.55;;;0.85;;
45043;SDS011;30784;48.490;9.688;2022-07-15T05:58:06;5.43;;;1.05;;
45043;SDS011;30784;48.490;9.688;2022-07-15T06:00:32;6.15;;;1.50;;
45043;SDS011;30784;48.490;9.688;2022-07-15T06:02:58;4.72;;;1.20;;
45043;SDS011;30784;48.490;9.688;2022-07-15T06:05:24;3.85;;;1.05;;
45043;SDS011;30784;48.490;9.688;2022-07-15T06:07:49;3.85;;;1.10;;
45043;SDS011;30784;48.490;9.688;2022-07-15T06:10:15;4.88;;;1.02;;
45043;SDS011;30784;48.490;9.688;2022-07-15T06:12:41;5.90;;;1.08;;
45043;SDS011;30784;48.490;9.688;2022-07-15T06:15:06;6.13;;;1.33;;
45043;SDS011;30784;48.490;9.688;2022-07-15T06:17:33;4.20;;;1.05;;
45043;SDS011;30784;48.490;9.688;2022-07-15T06:19:59;7.28;;;1.20;;
45043;SDS011;30784;48.490;9.688;2022-07-15T06:22:25;4.93;;;1.10;;
45043;SDS011;30784;48.490;9.688;2022-07-15T06:24:51;6.57;;;1.05;;
45043;SDS011;30784;48.490;9.688;2022-07-15T06:27:18;7.15;;;2.05;;
45043;SDS011;30784;48.490;9.688;2022-07-15T06:29:46;5.25;;;1.50;;
45043;SDS011;30784;48.490;9.688;2022-07-15T06:32:15;4.47;;;1.00;;
45043;SDS011;30784;48.490;9.688;2022-07-15T06:34:42;5.05;;;1.10;;
45043;SDS011;30784;48.490;9.688;2022-07-15T06:37:07;5.38;;;1.27;;
45043;SDS011;30784;48.490;9.688;2022-07-15T06:39:33;4.88;;;1.33;;
45043;SDS011;30784;48.490;9.688;2022-07-15T06:41:59;5.88;;;1.10;;
45043;SDS011;30784;48.490;9.688;2022-07-15T06:44:25;4.30;;;1.13;;
45043;SDS011;30784;48.490;9.688;2022-07-15T06:46:51;4.25;;;1.08;;
45043;SDS011;30784;48.490;9.688;2022-07-15T06:49:17;5.43;;;1.30;;
45043;SDS011;30784;48.490;9.688;2022-07-15T06:51:43;4.38;;;1.20;;
45043;SDS011;30784;48.490;9.688;2022-07-15T06:54:09;5.15;;;1.00;;
45043;SDS011;30784;48.490;9.688;2022-07-15T06:56:35;4.45;;;1.05;;
45043;SDS011;30784;48.490;9.688;2022-07-15T06:59:01;4.70;;;1.20;;
45043;SDS011;30784;48.490;9.688;2022-07-15T07:01:27;3.95;;;1.20;;
45043;SDS011;30784;48.490;9.688;2022-07-15T07:03:53;5.00;;;1.20;;
45043;SDS011;30784;48.490;9.688;2022-07-15T07:06:18;5.18;;;1.20;;
45043;SDS011;30784;48.490;9.688;2022-07-15T07:08:44;4.28;;;1.10;;
45043;SDS011;30784;48.490;9.688;2022-07-15T07:11:11;5.65;;;1.55;;
45043;SDS011;30784;48.490;9.688;2022-07-15T07:13:37;4.53;;;1.20;;
45043;SDS011;30784;48.490;9.688;2022-07-15T07:16:03;4.25;;;1.30;;
45043;SDS011;30784;48.490;9.688;2022-07-15T07:18:29;4.60;;;1.20;;
45043;SDS011;30784;48.490;9.688;2022-07-15T07:20:55;4.10;;;1.20;;
45043;SDS011;30784;48.490;9.688;2022-07-15T07:23:21;4.93;;;1.20;;
45043;SDS011;30784;48.490;9.688;2022-07-15T07:25:51;5.00;;;1.15;;
45043;SDS011;30784;48.490;9.688;2022-07-15T07:28:18;3.83;;;1.35;;
45043;SDS011;30784;48.490;9.688;2022-07-15T07:30:43;4.50;;;1.20;;
45043;SDS011;30784;48.490;9.688;2022-07-15T07:33:10;5.10;;;1.70;;
45043;SDS011;30784;48.490;9.688;2022-07-15T07:35:36;4.25;;;1.20;;
45043;SDS011;30784;48.490;9.688;2022-07-15T07:38:03;4.80;;;1.10;;
45043;SDS011;30784;48.490;9.688;2022-07-15T07:40:29;7.57;;;1.52;;
45043;SDS011;30784;48.490;9.688;2022-07-15T07:42:55;6.45;;;0.90;;
45043;SDS011;30784;48.490;9.688;2022-07-15T07:45:24;4.07;;;1.13;;
45043;SDS011;30784;48.490;9.688;2022-07-15T07:47:50;4.57;;;1.20;;
45043;SDS011;30784;48.490;9.688;2022-07-15T07:50:17;5.70;;;1.23;;
45043;SDS011;30784;48.490;9.688;2022-07-15T07:52:42;4.20;;;1.30;;
45043;SDS011;30784;48.490;9.688;2022-07-15T07:55:08;4.40;;;1.30;;
45043;SDS011;30784;48.490;9.688;2022-07-15T07:57:34;5.13;;;1.27;;
45043;SDS011;30784;48.490;9.688;2022-07-15T08:00:10;4.10;;;1.27;;
45043;SDS011;30784;48.490;9.688;2022-07-15T08:02:37;4.53;;;1.30;;
45043;SDS011;30784;48.490;9.688;2022-07-15T08:05:03;4.05;;;1.27;;
45043;SDS011;30784;48.490;9.688;2022-07-15T08:07:29;4.97;;;1.30;;
45043;SDS011;30784;48.490;9.688;2022-07-15T08:09:55;4.95;;;1.10;;
45043;SDS011;30784;48.490;9.688;2022-07-15T08:12:20;4.72;;;1.38;;
45043;SDS011;30784;48.490;9.688;2022-07-15T08:14:46;4.45;;;1.30;;
45043;SDS011;30784;48.490;9.688;2022-07-15T08:17:12;4.25;;;1.23;;
45043;SDS011;30784;48.490;9.688;2022-07-15T08:19:37;5.45;;;1.30;;
45043;SDS011;30784;48.490;9.688;2022-07-15T08:22:03;5.05;;;1.10;;
45043;SDS011;30784;48.490;9.688;2022-07-15T08:24:28;6.55;;;1.23;;
45043;SDS011;30784;48.490;9.688;2022-07-15T08:26:54;6.38;;;1.55;;
45043;SDS011;30784;48.490;9.688;2022-07-15T08:29:20;5.32;;;1.48;;
45043;SDS011;30784;48.490;9.688;2022-07-15T08:31:46;6.22;;;1.40;;
45043;SDS011;30784;48.490;9.688;2022-07-15T08:34:11;4.72;;;1.10;;
45043;SDS011;30784;48.490;9.688;2022-07-15T08:36:37;5.88;;;1.40;;
45043;SDS011;30784;48.490;9.688;2022-07-15T08:39:03;5.65;;;1.40;;
45043;SDS011;30784;48.490;9.688;2022-07-15T08:41:28;6.00;;;1.52;;
45043;SDS011;30784;48.490;9.688;2022-07-15T08:43:54;4.57;;;1.20;;
45043;SDS011;30784;48.490;9.688;2022-07-15T08:46:20;5.82;;;1.40;;
45043;SDS011;30784;48.490;9.688;2022-07-15T08:48:51;7.13;;;1.70;;
45043;SDS011;30784;48.490;9.688;2022-07-15T08:51:17;6.63;;;1.40;;
45043;SDS011;30784;48.490;9.688;2022-07-15T08:53:46;5.38;;;1.40;;
45043;SDS011;30784;48.490;9.688;2022-07-15T08:56:12;5.00;;;1.40;;
45043;SDS011;30784;48.490;9.688;2022-07-15T08:58:38;4.03;;;1.30;;
45043;SDS011;30784;48.490;9.688;2022-07-15T09:01:04;7.47;;;1.77;;
45043;SDS011;30784;48.490;9.688;2022-07-15T09:03:30;5.60;;;1.80;;
45043;SDS011;30784;48.490;9.688;2022-07-15T09:05:56;5.90;;;1.55;;
45043;SDS011;30784;48.490;9.688;2022-07-15T09:08:21;5.13;;;1.48;;
45043;SDS011;30784;48.490;9.688;2022-07-15T09:18:42;6.15;;;2.10;;
45043;SDS011;30784;48.490;9.688;2022-07-15T09:23:44;5.32;;;1.50;;
45043;SDS011;30784;48.490;9.688;2022-07-15T09:29:01;5.00;;;1.50;;
45043;SDS011;30784;48.490;9.688;2022-07-15T09:31:48;5.03;;;1.50;;
45043;SDS011;30784;48.490;9.688;2022-07-15T09:34:57;4.30;;;1.58;;
45043;SDS011;30784;48.490;9.688;2022-07-15T09:37:29;6.47;;;1.80;;
45043;SDS011;30784;48.490;9.688;2022-07-15T09:39:56;6.20;;;1.42;;
45043;SDS011;30784;48.490;9.688;2022-07-15T09:42:22;5.22;;;1.50;;
45043;SDS011;30784;48.490;9.688;2022-07-15T09:44:48;5.88;;;1.52;;
45043;SDS011;30784;48.490;9.688;2022-07-15T09:47:19;5.47;;;1.50;;
45043;SDS011;30784;48.490;9.688;2022-07-15T09:49:48;6.88;;;1.88;;
45043;SDS011;30784;48.490;9.688;2022-07-15T09:52:15;6.15;;;1.60;;
45043;SDS011;30784;48.490;9.688;2022-07-15T09:54:42;5.07;;;1.80;;
45043;SDS011;30784;48.490;9.688;2022-07-15T09:57:13;4.15;;;1.42;;
45043;SDS011;30784;48.490;9.688;2022-07-15T09:59:41;5.57;;;1.85;;
45043;SDS011;30784;48.490;9.688;2022-07-15T10:02:08;4.72;;;1.50;;
45043;SDS011;30784;48.490;9.688;2022-07-15T10:04:34;6.22;;;1.88;;
45043;SDS011;30784;48.490;9.688;2022-07-15T10:07:00;4.88;;;1.60;;
45043;SDS011;30784;48.490;9.688;2022-07-15T10:09:29;4.53;;;1.60;;
45043;SDS011;30784;48.490;9.688;2022-07-15T10:12:16;5.68;;;1.80;;
45043;SDS011;30784;48.490;9.688;2022-07-15T10:25:55;4.38;;;1.65;;
45043;SDS011;30784;48.490;9.688;2022-07-15T10:28:48;6.05;;;1.70;;
45043;SDS011;30784;48.490;9.688;2022-07-15T10:34:14;6.57;;;1.80;;
45043;SDS011;30784;48.490;9.688;2022-07-15T10:36:38;6.13;;;1.60;;
45043;SDS011;30784;48.490;9.688;2022-07-15T10:39:15;5.05;;;1.80;;
45043;SDS011;30784;48.490;9.688;2022-07-15T10:44:21;6.18;;;2.08;;
45043;SDS011;30784;48.490;9.688;2022-07-15T10:47:16;5.03;;;1.90;;
45043;SDS011;30784;48.490;9.688;2022-07-15T10:49:42;5.10;;;1.73;;
45043;SDS011;30784;48.490;9.688;2022-07-15T10:57:20;4.10;;;1.55;;
45043;SDS011;30784;48.490;9.688;2022-07-15T11:03:00;5.00;;;1.60;;
45043;SDS011;30784;48.490;9.688;2022-07-15T11:05:27;6.18;;;1.77;;
45043;SDS011;30784;48.490;9.688;2022-07-15T11:07:53;5.30;;;2.00;;
45043;SDS011;30784;48.490;9.688;2022-07-15T11:10:19;5.30;;;2.05;;
45043;SDS011;30784;48.490;9.688;2022-07-15T11:15:18;5.25;;;1.70;;
45043;SDS011;30784;48.490;9.688;2022-07-15T11:17:49;4.60;;;1.60;;
45043;SDS011;30784;48.490;9.688;2022-07-15T11:20:18;6.15;;;2.00;;
45043;SDS011;30784;48.490;9.688;2022-07-15T11:22:49;5.30;;;1.48;;
45043;SDS011;30784;48.490;9.688;2022-07-15T11:28:04;6.28;;;2.05;;
45043;SDS011;30784;48.490;9.688;2022-07-15T11:30:33;6.35;;;1.95;;
45043;SDS011;30784;48.490;9.688;2022-07-15T11:33:00;5.65;;;1.70;;
45043;SDS011;30784;48.490;9.688;2022-07-15T11:35:27;5.18;;;1.85;;
45043;SDS011;30784;48.490;9.688;2022-07-15T11:37:58;6.35;;;1.70;;
45043;SDS011;30784;48.490;9.688;2022-07-15T11:40:29;5.53;;;1.85;;
45043;SDS011;30784;48.490;9.688;2022-07-15T11:43:15;4.63;;;1.50;;
45043;SDS011;30784;48.490;9.688;2022-07-15T11:46:03;6.43;;;1.75;;
45043;SDS011;30784;48.490;9.688;2022-07-15T11:48:33;5.00;;;1.52;;
45043;SDS011;30784;48.490;9.688;2022-07-15T11:51:00;7.22;;;1.65;;
45043;SDS011;30784;48.490;9.688;2022-07-15T11:53:26;5.38;;;1.65;;
45043;SDS011;30784;48.490;9.688;2022-07-15T11:55:59;4.97;;;1.58;;
45043;SDS011;30784;48.490;9.688;2022-07-15T11:58:32;4.70;;;1.70;;
45043;SDS011;30784;48.490;9.688;2022-07-15T12:01:06;5.35;;;1.70;;
45043;SDS011;30784;48.490;9.688;2022-07-15T12:03:35;6.93;;;1.63;;
45043;SDS011;30784;48.490;9.688;2022-07-15T12:06:07;5.07;;;1.60;;
45043;SDS011;30784;48.490;9.688;2022-07-15T12:08:40;4.10;;;1.58;;
45043;SDS011;30784;48.490;9.688;2022-07-15T12:11:13;5.25;;;1.80;;
45043;SDS011;30784;48.490;9.688;2022-07-15T12:13:44;6.40;;;1.65;;
45043;SDS011;30784;48.490;9.688;2022-07-15T12:16:23;6.70;;;1.70;;
45043;SDS011;30784;48.490;9.688;2022-07-15T12:18:52;5.13;;;1.50;;
45043;SDS011;30784;48.490;9.688;2022-07-15T12:21:22;4.93;;;1.70;;
45043;SDS011;30784;48.490;9.688;2022-07-15T12:24:01;6.10;;;1.90;;
45043;SDS011;30784;48.490;9.688;2022-07-15T12:26:39;5.97;;;1.80;;
45043;SDS011;30784;48.490;9.688;2022-07-15T12:29:08;5.93;;;1.70;;
45043;SDS011;30784;48.490;9.688;2022-07-15T12:31:36;5.18;;;1.92;;
45043;SDS011;30784;48.490;9.688;2022-07-15T12:34:03;4.78;;;1.50;;
45043;SDS011;30784;48.490;9.688;2022-07-15T12:36:30;5.95;;;1.70;;
45043;SDS011;30784;48.490;9.688;2022-07-15T12:41:35;5.65;;;1.63;;
45043;SDS011;30784;48.490;9.688;2022-07-15T12:44:02;5.20;;;1.65;;
45043;SDS011;30784;48.490;9.688;2022-07-15T12:54:49;5.15;;;1.60;;
45043;SDS011;30784;48.490;9.688;2022-07-15T12:57:24;5.03;;;1.70;;
45043;SDS011;30784;48.490;9.688;2022-07-15T12:59:53;5.30;;;1.70;;
45043;SDS011;30784;48.490;9.688;2022-07-15T13:02:30;7.07;;;1.90;;
45043;SDS011;30784;48.490;9.688;2022-07-15T13:04:56;5.97;;;1.55;;
45043;SDS011;30784;48.490;9.688;2022-07-15T13:07:22;5.85;;;1.80;;
45043;SDS011;30784;48.490;9.688;2022-07-15T13:09:48;4.75;;;1.65;;
45043;SDS011;30784;48.490;9.688;2022-07-15T13:12:15;5.43;;;1.58;;
45043;SDS011;30784;48.490;9.688;2022-07-15T13:14:41;5.10;;;1.60;;
45043;SDS011;30784;48.490;9.688;2022-07-15T13:17:07;4.63;;;1.60;;
45043;SDS011;30784;48.490;9.688;2022-07-15T13:19:35;5.10;;;1.80;;
45043;SDS011;30784;48.490;9.688;2022-07-15T13:22:00;4.47;;;1.63;;
45043;SDS011;30784;48.490;9.688;2022-07-15T13:24:27;4.53;;;1.45;;
45043;SDS011;30784;48.490;9.688;2022-07-15T13:26:53;5.43;;;2.00;;
45043;SDS011;30784;48.490;9.688;2022-07-15T13:29:19;5.32;;;1.60;;
45043;SDS011;30784;48.490;9.688;2022-07-15T13:31:45;5.47;;;1.60;;
45043;SDS011;30784;48.490;9.688;2022-07-15T13:34:10;5.43;;;1.90;;
45043;SDS011;30784;48.490;9.688;2022-07-15T13:36:36;5.32;;;1.60;;
45043;SDS011;30784;48.490;9.688;2022-07-15T13:39:02;4.07;;;1.58;;
45043;SDS011;30784;48.490;9.688;2022-07-15T13:41:29;4.28;;;1.70;;
45043;SDS011;30784;48.490;9.688;2022-07-15T13:43:54;5.00;;;1.63;;
45043;SDS011;30784;48.490;9.688;2022-07-15T13:46:20;4.45;;;1.58;;
45043;SDS011;30784;48.490;9.688;2022-07-15T13:48:46;5.63;;;1.42;;
45043;SDS011;30784;48.490;9.688;2022-07-15T13:51:11;5.32;;;1.73;;
45043;SDS011;30784;48.490;9.688;2022-07-15T13:53:52;6.40;;;1.90;;
45043;SDS011;30784;48.490;9.688;2022-07-15T13:56:19;6.15;;;1.70;;
45043;SDS011;30784;48.490;9.688;2022-07-15T13:58:46;5.20;;;1.55;;
45043;SDS011;30784;48.490;9.688;2022-07-15T14:01:12;5.13;;;1.67;;
45043;SDS011;30784;48.490;9.688;2022-07-15T14:03:38;5.85;;;1.58;;
45043;SDS011;30784;48.490;9.688;2022-07-15T14:06:04;5.18;;;1.58;;
45043;SDS011;30784;48.490;9.688;2022-07-15T14:08:30;5.07;;;1.38;;
45043;SDS011;30784;48.490;9.688;2022-07-15T14:10:55;7.88;;;1.90;;
45043;SDS011;30784;48.490;9.688;2022-07-15T14:13:21;5.65;;;1.60;;
45043;SDS011;30784;48.490;9.688;2022-07-15T14:15:47;4.68;;;1.50;;
45043;SDS011;30784;48.490;9.688;2022-07-15T14:18:13;4.82;;;1.63;;
45043;SDS011;30784;48.490;9.688;2022-07-15T14:20:38;5.65;;;1.73;;
45043;SDS011;30784;48.490;9.688;2022-07-15T14:23:06;6.30;;;1.60;;
45043;SDS011;30784;48.490;9.688;2022-07-15T14:25:32;4.85;;;1.50;;
45043;SDS011;30784;48.490;9.688;2022-07-15T14:27:58;7.28;;;2.55;;
45043;SDS011;30784;48.490;9.688;2022-07-15T14:30:24;5.40;;;1.90;;
45043;SDS011;30784;48.490;9.688;2022-07-15T14:32:49;5.50;;;1.88;;
45043;SDS011;30784;48.490;9.688;2022-07-15T14:35:15;6.70;;;1.58;;
45043;SDS011;30784;48.490;9.688;2022-07-15T14:37:41;4.88;;;1.40;;
45043;SDS011;30784;48.490;9.688;2022-07-15T14:40:07;5.07;;;1.58;;
45043;SDS011;30784;48.490;9.688;2022-07-15T14:42:33;4.80;;;1.80;;
45043;SDS011;30784;48.490;9.688;2022-07-15T14:44:59;4.47;;;1.63;;
45043;SDS011;30784;48.490;9.688;2022-07-15T14:47:24;5.18;;;1.80;;
45043;SDS011;30784;48.490;9.688;2022-07-15T14:49:50;4.85;;;1.88;;
45043;SDS011;30784;48.490;9.688;2022-07-15T14:52:15;4.13;;;1.40;;
45043;SDS011;30784;48.490;9.688;2022-07-15T14:54:41;4.47;;;1.50;;
45043;SDS011;30784;48.490;9.688;2022-07-15T14:57:07;5.45;;;1.90;;
45043;SDS011;30784;48.490;9.688;2022-07-15T14:59:33;4.28;;;1.50;;
45043;SDS011;30784;48.490;9.688;2022-07-15T15:02:02;4.63;;;1.70;;
45043;SDS011;30784;48.490;9.688;2022-07-15T15:04:32;4.88;;;1.58;;
45043;SDS011;30784;48.490;9.688;2022-07-15T15:06:58;5.72;;;1.50;;
45043;SDS011;30784;48.490;9.688;2022-07-15T15:09:24;5.55;;;1.80;;
45043;SDS011;30784;48.490;9.688;2022-07-15T15:11:50;5.85;;;1.60;;
45043;SDS011;30784;48.490;9.688;2022-07-15T15:14:16;5.30;;;1.65;;
45043;SDS011;30784;48.490;9.688;2022-07-15T15:16:41;4.82;;;1.63;;
45043;SDS011;30784;48.490;9.688;2022-07-15T15:19:07;4.32;;;1.42;;
45043;SDS011;30784;48.490;9.688;2022-07-15T15:21:32;6.32;;;1.70;;
45043;SDS011;30784;48.490;9.688;2022-07-15T15:23:59;4.72;;;1.52;;
45043;SDS011;30784;48.490;9.688;2022-07-15T15:26:25;6.43;;;1.90;;
45043;SDS011;30784;48.490;9.688;2022-07-15T15:28:52;5.55;;;1.70;;
45043;SDS011;30784;48.490;9.688;2022-07-15T15:31:18;5.40;;;1.70;;
45043;SDS011;30784;48.490;9.688;2022-07-15T15:33:45;5.00;;;1.40;;
45043;SDS011;30784;48.490;9.688;2022-07-15T15:36:11;5.43;;;1.65;;
45043;SDS011;30784;48.490;9.688;2022-07-15T15:38:36;6.30;;;1.60;;
45043;SDS011;30784;48.490;9.688;2022-07-15T15:41:02;3.90;;;1.30;;
45043;SDS011;30784;48.490;9.688;2022-07-15T15:43:28;4.93;;;1.60;;
45043;SDS011;30784;48.490;9.688;2022-07-15T15:45:54;4.57;;;1.55;;
45043;SDS011;30784;48.490;9.688;2022-07-15T15:48:19;5.47;;;1.58;;
45043;SDS011;30784;48.490;9.688;2022-07-15T15:50:45;4.30;;;1.45;;
45043;SDS011;30784;48.490;9.688;2022-07-15T15:53:11;4.95;;;1.50;;